sensor_id;sensor_type;location;lat;lon;timestamp;temperature;humidity
39099;DHT22;24844;52.380;7.018;2023-02-21T12:57:11;12.10;99.90
39099;DHT22;24844;52.380;7.018;2023-02-21T13:00:03;12.00;99.90
39099;DHT22;24844;52.380;7.018;2023-02-21T13:08:20;11.80;99.90
39099;DHT22;24844;52.380;7.018;2023-02-21T13:13:36;12.00;99.90
39099;DHT22;24844;52.380;7.018;2023-02-21T13:16:08;11.60;99.90
39099;DHT22;24844;52.380;7.018;2023-02-21T13:18:57;11.70;99.90
39099;DHT22;24844;52.380;7.018;2023-02-21T13:24:36;11.80;99.90
39099;DHT22;24844;52.380;7.018;2023-02-21T13:29:40;11.90;99.90
39099;DHT22;24844;52.380;7.018;2023-02-21T13:32:13;11.80;99.90
39099;DHT22;24844;52.380;7.018;2023-02-21T13:34:44;12.00;99.90
39099;DHT22;24844;52.380;7.018;2023-02-21T13:37:23;12.00;99.90
39099;DHT22;24844;52.380;7.018;2023-02-21T13:39:53;11.80;99.90
39099;DHT22;24844;52.380;7.018;2023-02-21T13:42:24;11.90;99.90
39099;DHT22;24844;52.380;7.018;2023-02-21T13:44:51;12.00;99.90
39099;DHT22;24844;52.380;7.018;2023-02-21T13:47:20;11.70;99.90
39099;DHT22;24844;52.380;7.018;2023-02-21T13:49:57;11.60;99.90
39099;DHT22;24844;52.380;7.018;2023-02-21T13:52:27;11.80;99.90
39099;DHT22;24844;52.380;7.018;2023-02-21T13:57:37;11.90;99.90
39099;DHT22;24844;52.380;7.018;2023-02-21T14:08:35;12.20;99.90
39099;DHT22;24844;52.380;7.018;2023-02-21T14:14:37;12.40;99.90
39099;DHT22;24844;52.380;7.018;2023-02-21T14:16:51;12.20;99.90
39099;DHT22;24844;52.380;7.018;2023-02-21T14:21:57;12.10;99.90
39099;DHT22;24844;52.380;7.018;2023-02-21T14:24:26;12.20;99.90
39099;DHT22;24844;52.380;7.018;2023-02-21T14:27:01;12.30;99.90
39099;DHT22;24844;52.380;7.018;2023-02-21T14:34:52;12.20;99.90
39099;DHT22;24844;52.380;7.018;2023-02-21T14:37:23;12.10;99.90
39099;DHT22;24844;52.380;7.018;2023-02-21T14:39:52;11.90;99.90
39099;DHT22;24844;52.380;7.018;2023-02-21T14:42:34;12.00;99.90
39099;DHT22;24844;52.380;7.018;2023-02-21T14:53:49;11.60;99.90
39099;DHT22;24844;52.380;7.018;2023-02-21T15:04:42;11.90;99.90
39099;DHT22;24844;52.380;7.018;2023-02-21T15:09:41;11.80;99.90
39099;DHT22;24844;52.380;7.018;2023-02-21T15:12:14;11.90;99.90
39099;DHT22;24844;52.380;7.018;2023-02-21T15:14:54;11.80;99.90
39099;DHT22;24844;52.380;7.018;2023-02-21T15:17:21;11.60;99.90
39099;DHT22;24844;52.380;7.018;2023-02-21T15:20:06;11.60;99.90
39099;DHT22;24844;52.380;7.018;2023-02-21T15:22:37;11.70;99.90
39099;DHT22;24844;52.380;7.018;2023-02-21T15:27:37;11.80;99.90
39099;DHT22;24844;52.380;7.018;2023-02-21T15:30:17;11.70;99.90
39099;DHT22;24844;52.380;7.018;2023-02-21T15:32:43;11.70;99.90
39099;DHT22;24844;52.380;7.018;2023-02-21T15:35:22;11.80;99.90
39099;DHT22;24844;52.380;7.018;2023-02-21T15:37:49;11.60;99.90
39099;DHT22;24844;52.380;7.018;2023-02-21T15:40:21;11.60;99.90
39099;DHT22;24844;52.380;7.018;2023-02-21T15:42:49;11.50;99.90
39099;DHT22;24844;52.380;7.018;2023-02-21T15:45:32;11.50;99.90
39099;DHT22;24844;52.380;7.018;2023-02-21T15:48:00;11.60;99.90
39099;DHT22;24844;52.380;7.018;2023-02-21T15:50:33;11.70;99.90
39099;DHT22;24844;52.380;7.018;2023-02-21T15:53:11;11.70;99.90
39099;DHT22;24844;52.380;7.018;2023-02-21T15:55:37;11.60;99.90
39099;DHT22;24844;52.380;7.018;2023-02-21T16:00:34;11.80;99.90
39099;DHT22;24844;52.380;7.018;2023-02-21T16:03:32;11.30;99.90
39099;DHT22;24844;52.380;7.018;2023-02-21T16:06:25;11.10;99.90
39099;DHT22;24844;52.380;7.018;2023-02-21T16:17:19;11.20;99.90
39099;DHT22;24844;52.380;7.018;2023-02-21T16:19:51;11.30;99.90
39099;DHT22;24844;52.380;7.018;2023-02-21T16:22:28;11.20;99.90
39099;DHT22;24844;52.380;7.018;2023-02-21T16:27:43;11.40;99.90
39099;DHT22;24844;52.380;7.018;2023-02-21T16:30:26;11.20;99.90
39099;DHT22;24844;52.380;7.018;2023-02-21T16:32:57;11.40;99.90
39099;DHT22;24844;52.380;7.018;2023-02-21T16:35:24;11.40;99.90
39099;DHT22;24844;52.380;7.018;2023-02-21T16:37:52;11.40;99.90
39099;DHT22;24844;52.380;7.018;2023-02-21T16:40:21;11.40;99.90
39099;DHT22;24844;52.380;7.018;2023-02-21T16:42:50;11.20;99.90
39099;DHT22;24844;52.380;7.018;2023-02-21T16:45:16;11.20;99.90
39099;DHT22;24844;52.380;7.018;2023-02-21T16:47:42;11.10;99.90
39099;DHT22;24844;52.380;7.018;2023-02-21T16:50:34;11.00;99.90
39099;DHT22;24844;52.380;7.018;2023-02-21T16:53:00;10.80;99.90
39099;DHT22;24844;52.380;7.018;2023-02-21T16:55:27;10.80;99.90
39099;DHT22;24844;52.380;7.018;2023-02-21T16:57:56;10.90;99.90
39099;DHT22;24844;52.380;7.018;2023-02-21T17:00:23;10.90;99.90
39099;DHT22;24844;52.380;7.018;2023-02-21T17:02:49;10.80;99.90
39099;DHT22;24844;52.380;7.018;2023-02-21T17:05:16;10.80;99.90
39099;DHT22;24844;52.380;7.018;2023-02-21T17:07:42;10.90;99.90
39099;DHT22;24844;52.380;7.018;2023-02-21T17:10:09;11.00;99.90
39099;DHT22;24844;52.380;7.018;2023-02-21T17:12:35;10.80;99.90
39099;DHT22;24844;52.380;7.018;2023-02-21T17:15:01;10.80;99.90
39099;DHT22;24844;52.380;7.018;2023-02-21T17:17:26;10.90;99.90
39099;DHT22;24844;52.380;7.018;2023-02-21T17:19:52;10.80;99.90
39099;DHT22;24844;52.380;7.018;2023-02-21T17:22:18;11.00;99.90
39099;DHT22;24844;52.380;7.018;2023-02-21T17:24:43;10.90;99.90
39099;DHT22;24844;52.380;7.018;2023-02-21T17:27:09;10.80;99.90
39099;DHT22;24844;52.380;7.018;2023-02-21T17:29:34;10.90;99.90
39099;DHT22;24844;52.380;7.018;2023-02-21T17:32:00;10.90;99.90
39099;DHT22;24844;52.380;7.018;2023-02-21T17:34:35;10.80;99.90
39099;DHT22;24844;52.380;7.018;2023-02-21T17:37:01;10.80;99.90
39099;DHT22;24844;52.380;7.018;2023-02-21T17:39:28;10.70;99.90
39099;DHT22;24844;52.380;7.018;2023-02-21T17:41:54;10.70;99.90
39099;DHT22;24844;52.380;7.018;2023-02-21T17:44:21;10.80;99.90
39099;DHT22;24844;52.380;7.018;2023-02-21T17:46:49;10.60;99.90
39099;DHT22;24844;52.380;7.018;2023-02-21T17:49:16;10.70;99.90
39099;DHT22;24844;52.380;7.018;2023-02-21T17:51:42;10.80;99.90
39099;DHT22;24844;52.380;7.018;2023-02-21T17:54:07;10.70;99.90
39099;DHT22;24844;52.380;7.018;2023-02-21T17:56:33;10.70;99.90
39099;DHT22;24844;52.380;7.018;2023-02-21T17:58:58;10.90;99.90
39099;DHT22;24844;52.380;7.018;2023-02-21T18:01:24;11.00;99.90
39099;DHT22;24844;52.380;7.018;2023-02-21T18:03:50;11.10;99.90
39099;DHT22;24844;52.380;7.018;2023-02-21T18:06:16;11.10;99.90
39099;DHT22;24844;52.380;7.018;2023-02-21T18:08:43;11.20;99.90
39099;DHT22;24844;52.380;7.018;2023-02-21T18:11:14;11.10;99.90
39099;DHT22;24844;52.380;7.018;2023-02-21T18:13:40;11.00;99.90
39099;DHT22;24844;52.380;7.018;2023-02-21T18:16:05;11.00;99.90
39099;DHT22;24844;52.380;7.018;2023-02-21T18:18:32;11.00;99.90
39099;DHT22;24844;52.380;7.018;2023-02-21T18:20:58;11.00;99.90
39099;DHT22;24844;52.380;7.018;2023-02-21T18:23:25;10.80;99.90
39099;DHT22;24844;52.380;7.018;2023-02-21T18:25:51;10.90;99.90
39099;DHT22;24844;52.380;7.018;2023-02-21T18:28:16;10.90;99.90
39099;DHT22;24844;52.380;7.018;2023-02-21T18:30:42;10.80;99.90
39099;DHT22;24844;52.380;7.018;2023-02-21T18:33:07;10.90;99.90
39099;DHT22;24844;52.380;7.018;2023-02-21T18:35:33;10.80;99.90
39099;DHT22;24844;52.380;7.018;2023-02-21T18:37:58;10.80;99.90
39099;DHT22;24844;52.380;7.018;2023-02-21T18:40:24;10.80;99.90
39099;DHT22;24844;52.380;7.018;2023-02-21T18:43:00;10.80;99.90
39099;DHT22;24844;52.380;7.018;2023-02-21T18:45:25;10.80;99.90
39099;DHT22;24844;52.380;7.018;2023-02-21T18:47:51;10.70;99.90
39099;DHT22;24844;52.380;7.018;2023-02-21T18:50:17;10.60;99.90
39099;DHT22;24844;52.380;7.018;2023-02-21T18:52:43;10.50;99.90
39099;DHT22;24844;52.380;7.018;2023-02-21T18:55:09;10.70;99.90
39099;DHT22;24844;52.380;7.018;2023-02-21T18:57:37;10.70;99.90
39099;DHT22;24844;52.380;7.018;2023-02-21T19:00:05;10.60;99.90
39099;DHT22;24844;52.380;7.018;2023-02-21T19:02:31;10.60;99.90
39099;DHT22;24844;52.380;7.018;2023-02-21T19:04:59;10.60;99.90
39099;DHT22;24844;52.380;7.018;2023-02-21T19:07:24;10.60;99.90
39099;DHT22;24844;52.380;7.018;2023-02-21T19:09:50;10.40;99.90
39099;DHT22;24844;52.380;7.018;2023-02-21T19:12:16;10.30;99.90
39099;DHT22;24844;52.380;7.018;2023-02-21T19:14:42;10.40;99.90
39099;DHT22;24844;52.380;7.018;2023-02-21T19:17:08;10.20;99.90
39099;DHT22;24844;52.380;7.018;2023-02-21T19:19:35;10.30;99.90
39099;DHT22;24844;52.380;7.018;2023-02-21T19:22:00;10.20;99.90
39099;DHT22;24844;52.380;7.018;2023-02-21T19:24:26;10.10;99.90
39099;DHT22;24844;52.380;7.018;2023-02-21T19:26:52;10.10;99.90
39099;DHT22;24844;52.380;7.018;2023-02-21T19:29:18;10.00;99.90
39099;DHT22;24844;52.380;7.018;2023-02-21T19:31:44;10.10;99.90
39099;DHT22;24844;52.380;7.018;2023-02-21T19:34:10;10.20;99.90
39099;DHT22;24844;52.380;7.018;2023-02-21T19:36:36;10.10;99.90
39099;DHT22;24844;52.380;7.018;2023-02-21T19:39:06;10.00;99.90
39099;DHT22;24844;52.380;7.018;2023-02-21T19:41:32;10.00;99.90
39099;DHT22;24844;52.380;7.018;2023-02-21T19:43:58;10.00;99.90
39099;DHT22;24844;52.380;7.018;2023-02-21T19:46:25;9.90;99.90
39099;DHT22;24844;52.380;7.018;2023-02-21T19:48:51;9.90;99.90
39099;DHT22;24844;52.380;7.018;2023-02-21T19:51:24;10.00;99.90
39099;DHT22;24844;52.380;7.018;2023-02-21T19:53:50;10.00;99.90
39099;DHT22;24844;52.380;7.018;2023-02-21T19:56:16;9.90;99.90
39099;DHT22;24844;52.380;7.018;2023-02-21T19:58:41;9.90;99.90
39099;DHT22;24844;52.380;7.018;2023-02-21T20:01:07;10.10;99.90
39099;DHT22;24844;52.380;7.018;2023-02-21T20:03:33;10.10;99.90
39099;DHT22;24844;52.380;7.018;2023-02-21T20:06:00;10.10;99.90
39099;DHT22;24844;52.380;7.018;2023-02-21T20:08:27;10.00;99.90
39099;DHT22;24844;52.380;7.018;2023-02-21T20:10:56;10.00;99.90
39099;DHT22;24844;52.380;7.018;2023-02-21T20:13:22;9.90;99.90
39099;DHT22;24844;52.380;7.018;2023-02-21T20:15:48;9.90;99.90
39099;DHT22;24844;52.380;7.018;2023-02-21T20:18:13;9.80;99.90
39099;DHT22;24844;52.380;7.018;2023-02-21T20:20:40;9.80;99.90
39099;DHT22;24844;52.380;7.018;2023-02-21T20:23:05;10.00;99.90
39099;DHT22;24844;52.380;7.018;2023-02-21T20:25:33;9.90;99.90
39099;DHT22;24844;52.380;7.018;2023-02-21T20:27:59;10.00;99.90
39099;DHT22;24844;52.380;7.018;2023-02-21T20:30:25;10.00;99.90
39099;DHT22;24844;52.380;7.018;2023-02-21T20:32:51;10.10;99.90
39099;DHT22;24844;52.380;7.018;2023-02-21T20:35:17;10.00;99.90
39099;DHT22;24844;52.380;7.018;2023-02-21T20:37:44;9.80;99.90
39099;DHT22;24844;52.380;7.018;2023-02-21T20:40:11;9.80;99.90
39099;DHT22;24844;52.380;7.018;2023-02-21T20:42:39;9.70;99.90
39099;DHT22;24844;52.380;7.018;2023-02-21T20:45:06;9.80;99.90
39099;DHT22;24844;52.380;7.018;2023-02-21T20:47:32;9.60;99.90
39099;DHT22;24844;52.380;7.018;2023-02-21T20:49:58;9.60;99.90
39099;DHT22;24844;52.380;7.018;2023-02-21T20:52:24;9.60;99.90
39099;DHT22;24844;52.380;7.018;2023-02-21T20:54:49;9.80;99.90
39099;DHT22;24844;52.380;7.018;2023-02-21T20:57:16;9.70;99.90
39099;DHT22;24844;52.380;7.018;2023-02-21T20:59:41;9.70;99.90
39099;DHT22;24844;52.380;7.018;2023-02-21T21:02:07;9.60;99.90
39099;DHT22;24844;52.380;7.018;2023-02-21T21:04:38;9.80;99.90
39099;DHT22;24844;52.380;7.018;2023-02-21T21:07:17;9.90;99.90
39099;DHT22;24844;52.380;7.018;2023-02-21T21:09:48;9.80;99.90
39099;DHT22;24844;52.380;7.018;2023-02-21T21:12:16;9.80;99.90
39099;DHT22;24844;52.380;7.018;2023-02-21T21:14:43;9.70;99.90
39099;DHT22;24844;52.380;7.018;2023-02-21T21:17:11;9.50;99.90
39099;DHT22;24844;52.380;7.018;2023-02-21T21:19:38;9.40;99.90
39099;DHT22;24844;52.380;7.018;2023-02-21T21:22:08;9.50;99.90
39099;DHT22;24844;52.380;7.018;2023-02-21T21:24:35;9.50;99.90
39099;DHT22;24844;52.380;7.018;2023-02-21T21:27:02;9.50;99.90
39099;DHT22;24844;52.380;7.018;2023-02-21T21:29:35;9.50;99.90
39099;DHT22;24844;52.380;7.018;2023-02-21T21:32:01;9.60;99.90
39099;DHT22;24844;52.380;7.018;2023-02-21T21:34:30;9.50;99.90
39099;DHT22;24844;52.380;7.018;2023-02-21T21:36:58;9.50;99.90
39099;DHT22;24844;52.380;7.018;2023-02-21T21:39:25;9.60;99.90
39099;DHT22;24844;52.380;7.018;2023-02-21T21:41:52;9.70;99.90
39099;DHT22;24844;52.380;7.018;2023-02-21T21:44:22;9.50;99.90
39099;DHT22;24844;52.380;7.018;2023-02-21T21:46:49;9.50;99.90
39099;DHT22;24844;52.380;7.018;2023-02-21T21:49:16;9.40;99.90
39099;DHT22;24844;52.380;7.018;2023-02-21T21:51:44;9.40;99.90
39099;DHT22;24844;52.380;7.018;2023-02-21T21:54:11;9.40;99.90
39099;DHT22;24844;52.380;7.018;2023-02-21T21:56:38;9.30;99.90
39099;DHT22;24844;52.380;7.018;2023-02-21T21:59:05;9.30;99.90
39099;DHT22;24844;52.380;7.018;2023-02-21T22:01:33;9.30;99.90
39099;DHT22;24844;52.380;7.018;2023-02-21T22:04:00;9.30;99.90
39099;DHT22;24844;52.380;7.018;2023-02-21T22:06:25;9.30;99.90
39099;DHT22;24844;52.380;7.018;2023-02-21T22:08:54;9.40;99.90
39099;DHT22;24844;52.380;7.018;2023-02-21T22:11:19;9.30;99.90
39099;DHT22;24844;52.380;7.018;2023-02-21T22:13:45;9.30;99.90
39099;DHT22;24844;52.380;7.018;2023-02-21T22:16:11;9.30;99.90
39099;DHT22;24844;52.380;7.018;2023-02-21T22:18:37;9.30;99.90
39099;DHT22;24844;52.380;7.018;2023-02-21T22:21:06;9.30;99.90
39099;DHT22;24844;52.380;7.018;2023-02-21T22:23:34;9.50;99.90
39099;DHT22;24844;52.380;7.018;2023-02-21T22:26:02;9.50;99.90
39099;DHT22;24844;52.380;7.018;2023-02-21T22:28:28;9.40;99.90
39099;DHT22;24844;52.380;7.018;2023-02-21T22:30:54;9.40;99.90
39099;DHT22;24844;52.380;7.018;2023-02-21T22:33:19;9.40;99.90
39099;DHT22;24844;52.380;7.018;2023-02-21T22:35:46;9.40;99.90
39099;DHT22;24844;52.380;7.018;2023-02-21T22:38:12;9.30;99.90
39099;DHT22;24844;52.380;7.018;2023-02-21T22:40:42;9.30;99.90
39099;DHT22;24844;52.380;7.018;2023-02-21T22:43:08;9.30;99.90
39099;DHT22;24844;52.380;7.018;2023-02-21T22:45:34;9.30;99.90
39099;DHT22;24844;52.380;7.018;2023-02-21T22:48:05;9.40;99.90
39099;DHT22;24844;52.380;7.018;2023-02-21T22:50:31;9.40;99.90
39099;DHT22;24844;52.380;7.018;2023-02-21T22:53:01;9.40;99.90
39099;DHT22;24844;52.380;7.018;2023-02-21T22:55:29;9.40;99.90
39099;DHT22;24844;52.380;7.018;2023-02-21T22:57:56;9.20;99.90
39099;DHT22;24844;52.380;7.018;2023-02-21T23:00:26;9.20;99.90
39099;DHT22;24844;52.380;7.018;2023-02-21T23:02:52;9.20;99.90
39099;DHT22;24844;52.380;7.018;2023-02-21T23:05:20;9.30;99.90
39099;DHT22;24844;52.380;7.018;2023-02-21T23:07:52;9.40;99.90
39099;DHT22;24844;52.380;7.018;2023-02-21T23:10:21;9.40;99.90
39099;DHT22;24844;52.380;7.018;2023-02-21T23:12:53;9.50;99.90
39099;DHT22;24844;52.380;7.018;2023-02-21T23:15:19;9.40;99.90
39099;DHT22;24844;52.380;7.018;2023-02-21T23:17:47;9.30;99.90
39099;DHT22;24844;52.380;7.018;2023-02-21T23:20:16;9.20;99.90
39099;DHT22;24844;52.380;7.018;2023-02-21T23:22:50;9.20;99.90
39099;DHT22;24844;52.380;7.018;2023-02-21T23:25:19;9.20;99.90
39099;DHT22;24844;52.380;7.018;2023-02-21T23:30:17;9.30;99.90
39099;DHT22;24844;52.380;7.018;2023-02-21T23:32:44;9.50;99.90
39099;DHT22;24844;52.380;7.018;2023-02-21T23:35:11;9.50;99.90
39099;DHT22;24844;52.380;7.018;2023-02-21T23:37:41;9.60;99.90
39099;DHT22;24844;52.380;7.018;2023-02-21T23:40:18;9.50;99.90
39099;DHT22;24844;52.380;7.018;2023-02-21T23:42:48;9.60;99.90
39099;DHT22;24844;52.380;7.018;2023-02-21T23:45:16;9.70;99.90
39099;DHT22;24844;52.380;7.018;2023-02-21T23:47:46;9.50;99.90
39099;DHT22;24844;52.380;7.018;2023-02-21T23:50:14;9.50;99.90
39099;DHT22;24844;52.380;7.018;2023-02-21T23:52:47;9.50;99.90
39099;DHT22;24844;52.380;7.018;2023-02-21T23:55:15;9.40;99.90
39099;DHT22;24844;52.380;7.018;2023-02-21T23:57:45;9.30;99.90
